createdAt,value
2016-03-18T08:17:14.555Z,2124
2016-03-18T08:17:27.899Z,2769
2016-03-18T08:17:41.430Z,2241
2016-03-18T08:17:54.915Z,2869
2016-03-18T08:18:08.274Z,2929
2016-03-18T08:18:21.746Z,1992
2016-03-18T08:18:35.230Z,2282
2016-03-18T08:18:48.543Z,2655
2016-03-18T08:19:01.980Z,2772
2016-03-18T08:19:15.607Z,2784
2016-03-18T08:19:28.920Z,2728
2016-03-18T08:19:42.389Z,1964
2016-03-18T08:19:55.857Z,2089
2016-03-18T08:20:09.170Z,2941
2016-03-18T08:20:22.704Z,3132
2016-03-18T08:20:36.188Z,2898
2016-03-18T08:20:49.548Z,3251
2016-03-18T08:21:03.017Z,3251
2016-03-18T08:21:16.551Z,3224
2016-03-18T08:21:29.863Z,3190
2016-03-18T08:21:43.379Z,3102
2016-03-18T08:21:58.723Z,3093
2016-03-18T08:22:12.037Z,3170
2016-03-18T08:22:25.475Z,3259
2016-03-18T08:22:38.990Z,3252
2016-03-18T08:22:52.318Z,3115
2016-03-18T08:23:05.772Z,1792
2016-03-18T08:23:19.118Z,2869
2016-03-18T08:23:32.775Z,2706
2016-03-18T08:23:46.306Z,1754
2016-03-18T08:23:59.618Z,2504
2016-03-18T08:24:13.559Z,2434
2016-03-18T08:24:27.074Z,1755
2016-03-18T08:24:40.465Z,2302
2016-03-18T08:24:53.809Z,2017
2016-03-18T08:25:07.293Z,1980
2016-03-18T08:25:20.670Z,2231
2016-03-18T08:25:33.951Z,3361
2016-03-18T08:25:47.451Z,3327
2016-03-18T08:26:00.936Z,3240
2016-03-18T08:26:14.409Z,3222
2016-03-18T08:26:27.752Z,3229
2016-03-18T08:26:41.284Z,3297
2016-03-18T08:26:54.784Z,1806
2016-03-18T08:27:08.159Z,1686
2016-03-18T08:27:21.661Z,3083
2016-03-18T08:27:35.082Z,3053
2016-03-18T08:27:48.426Z,2967
2016-03-18T08:28:01.879Z,2915
2016-03-18T08:28:15.506Z,2924
2016-03-18T08:28:28.819Z,3021
2016-03-18T08:28:42.303Z,3063
2016-03-18T08:28:55.772Z,3069
2016-03-18T08:29:09.256Z,3215
2016-03-18T08:29:22.604Z,3438
2016-03-18T08:29:36.026Z,3633
2016-03-18T08:29:49.542Z,3813
2016-03-18T08:30:03.026Z,3948
2016-03-18T08:30:16.356Z,4015
2016-03-18T08:30:29.934Z,3990
2016-03-18T08:30:43.294Z,3843
2016-03-18T08:30:56.559Z,3731
2016-03-18T08:31:10.106Z,3721
2016-03-18T08:31:23.515Z,3793
2016-03-18T08:31:37.656Z,3759
2016-03-18T08:31:51.093Z,3707
2016-03-18T08:32:04.578Z,3655
2016-03-18T08:32:18.017Z,3632
2016-03-18T08:32:31.330Z,3527
2016-03-18T08:32:44.814Z,3448
2016-03-18T08:32:58.299Z,3395
2016-03-18T08:33:11.677Z,3403
2016-03-18T08:33:25.098Z,3456
2016-03-18T08:33:38.598Z,3456
2016-03-18T08:33:51.927Z,3389
2016-03-18T08:34:05.333Z,3311
2016-03-18T08:34:18.772Z,3338
2016-03-18T08:34:32.304Z,3373
2016-03-18T08:34:45.788Z,3347
2016-03-18T08:34:59.147Z,3307
2016-03-18T08:48:06.448Z,2911
2016-03-18T08:48:19.999Z,2963
2016-03-18T08:48:33.405Z,2986
2016-03-18T08:48:46.702Z,3056
2016-03-18T08:49:00.171Z,3107
2016-03-18T08:49:13.610Z,3175
2016-03-18T08:49:26.970Z,3219
2016-03-18T08:49:40.454Z,3235
2016-03-18T08:49:53.876Z,3289
2016-03-18T08:50:07.282Z,3297
2016-03-18T08:50:20.768Z,3264
2016-03-18T08:50:34.659Z,3203
2016-03-18T08:50:47.956Z,3142
2016-03-18T08:51:01.518Z,3116
2016-03-18T08:51:14.991Z,3081
2016-03-18T08:51:28.335Z,3053
2016-03-18T08:51:41.788Z,3105
2016-03-18T08:51:55.319Z,3225
2016-03-18T08:52:08.616Z,3398
2016-03-18T08:52:22.212Z,3562
2016-03-18T08:52:35.524Z,3640
2016-03-18T08:52:48.931Z,3614
2016-03-18T08:53:02.399Z,3588
2016-03-18T08:53:15.809Z,3588
2016-03-18T08:53:29.246Z,3572
2016-03-18T08:53:42.856Z,3495
2016-03-18T08:53:56.293Z,3424
2016-03-18T08:54:09.637Z,3424
2016-03-18T08:54:23.140Z,3441
2016-03-18T08:54:36.577Z,3511
2016-03-18T08:54:49.937Z,3545
2016-03-18T08:55:03.327Z,3493
2016-03-18T08:55:16.798Z,3391
2016-03-18T08:55:30.220Z,3287
2016-03-18T08:55:43.767Z,3235
2016-03-18T08:55:57.157Z,3202
2016-03-18T08:56:10.423Z,3175
2016-03-18T08:56:23.941Z,3175
2016-03-18T08:56:37.331Z,3245
2016-03-18T08:56:50.644Z,3306
2016-03-18T08:57:04.097Z,3324
2016-03-18T08:57:17.601Z,3245
2016-03-18T08:57:30.960Z,3142
2016-03-18T08:57:44.429Z,3063
2016-03-18T08:57:57.913Z,3053
2016-03-18T08:58:11.306Z,3150
2016-03-18T08:58:24.681Z,3245
2016-03-18T08:58:38.072Z,3289
2016-03-18T08:58:51.587Z,3342
2016-03-18T08:59:05.119Z,3386
2016-03-18T08:59:18.433Z,3418
2016-03-18T08:59:31.886Z,3471
2016-03-18T08:59:45.386Z,3434
2016-03-18T08:59:58.730Z,3460
2016-03-18T09:00:12.170Z,3511
2016-03-18T09:00:25.717Z,3563
2016-03-18T09:00:39.077Z,3607
2016-03-18T09:00:52.405Z,3617
2016-03-18T09:01:05.811Z,3588
2016-03-18T09:01:19.361Z,3649
2016-03-18T09:01:32.673Z,3710
2016-03-18T09:01:47.627Z,3662
2016-03-18T09:02:01.127Z,3511
2016-03-18T09:02:14.567Z,3510
2016-03-18T09:02:27.880Z,3623
2016-03-18T09:02:41.380Z,3685
2016-03-18T09:02:54.848Z,3712
2016-03-18T09:03:08.239Z,3712
2016-03-18T09:03:21.742Z,3659
2016-03-18T09:03:35.195Z,3623
2016-03-18T09:03:48.586Z,3617
2016-03-18T09:04:02.133Z,3521
2016-03-18T09:04:15.588Z,3399
2016-03-18T09:04:28.916Z,3302
2016-03-18T09:04:42.463Z,3286
2016-03-18T09:04:55.947Z,3276
2016-03-18T09:05:09.275Z,3301
2016-03-18T09:05:22.872Z,3334
2016-03-18T09:05:36.247Z,3413
2016-03-18T09:05:49.669Z,3500
2016-03-18T09:18:56.579Z,4258
2016-03-18T09:19:09.985Z,4164
2016-03-18T09:19:23.518Z,4040
2016-03-18T09:19:36.846Z,4014
2016-03-18T09:19:50.268Z,4024
2016-03-18T09:20:03.768Z,3998
2016-03-18T09:20:17.209Z,3938
2016-03-18T09:20:30.537Z,3886
2016-03-18T09:20:44.068Z,3833
2016-03-18T09:20:57.506Z,3815
2016-03-18T09:21:10.787Z,3850
2016-03-18T09:21:24.352Z,3895
2016-03-18T09:21:37.774Z,3875
2016-03-18T09:21:51.212Z,3918
2016-03-18T09:22:04.634Z,4050
2016-03-18T09:22:17.965Z,4139
2016-03-18T09:22:31.434Z,4120
2016-03-18T09:22:44.902Z,4131
2016-03-18T09:22:58.199Z,4087
2016-03-18T09:23:11.701Z,4017
2016-03-18T09:23:25.186Z,3955
2016-03-18T09:23:38.561Z,3945
2016-03-18T09:23:52.139Z,4005
2016-03-18T09:24:05.654Z,4042
2016-03-18T09:24:18.970Z,3980
2016-03-18T09:24:32.314Z,3945
2016-03-18T09:24:45.814Z,3911
2016-03-18T09:24:59.157Z,3895
2016-03-18T09:25:12.676Z,3885
2016-03-18T09:25:26.067Z,3963
2016-03-18T09:25:39.395Z,4079
2016-03-18T09:25:52.832Z,4055
2016-03-18T09:26:06.301Z,3881
2016-03-18T09:26:19.615Z,3726
2016-03-18T09:26:33.084Z,3595
2016-03-18T09:26:46.631Z,3572
2016-03-18T09:26:59.944Z,3527
2016-03-18T09:27:13.447Z,3537
2016-03-18T09:27:26.993Z,3493
2016-03-18T09:27:40.243Z,3441
2016-03-18T09:27:53.790Z,3373
2016-03-18T09:28:07.212Z,3302
2016-03-18T09:28:20.543Z,3302
2016-03-18T09:28:34.043Z,3344
2016-03-18T09:28:47.496Z,3458
2016-03-18T09:29:00.887Z,3518
2016-03-18T09:29:14.312Z,3580
2016-03-18T09:29:27.812Z,3630
2016-03-18T09:29:41.187Z,3697
2016-03-18T09:29:54.578Z,3791
2016-03-18T09:30:08.109Z,3920
2016-03-18T09:30:21.455Z,4092
2016-03-18T09:30:34.939Z,4298
2016-03-18T09:30:48.408Z,4601
2016-03-18T09:31:01.736Z,4942
2016-03-18T09:31:15.239Z,5137
2016-03-18T09:31:28.801Z,4955
2016-03-18T09:31:42.958Z,4641
2016-03-18T09:31:56.458Z,4430
2016-03-18T09:32:09.989Z,4336
2016-03-18T09:32:23.304Z,4217
2016-03-18T09:32:36.773Z,3998
2016-03-18T09:32:51.632Z,3833
2016-03-18T09:33:05.007Z,3738
2016-03-18T09:33:18.369Z,3677
2016-03-18T09:33:31.759Z,3652
2016-03-18T09:33:48.134Z,3599
2016-03-18T09:34:02.322Z,3600
2016-03-18T09:34:15.622Z,3600
2016-03-18T09:34:29.028Z,3600
2016-03-18T09:34:42.497Z,3580
2016-03-18T09:34:55.872Z,3659
2016-03-18T09:35:09.262Z,3769
2016-03-18T09:35:22.796Z,3943
2016-03-18T09:35:36.139Z,4081
2016-03-18T09:35:49.436Z,4235
2016-03-18T09:36:02.936Z,4444
2016-03-18T09:36:16.347Z,4629
2016-03-18T09:36:29.800Z,4621
2016-03-18T09:36:43.143Z,4517
2016-03-18T09:36:56.675Z,4430
2016-03-18T09:50:01.913Z,4840
2016-03-18T09:50:15.243Z,4850
2016-03-18T09:50:28.665Z,4850
2016-03-18T09:50:42.118Z,4862
2016-03-18T09:50:55.555Z,4721
2016-03-18T09:51:08.837Z,4608
2016-03-18T09:51:22.386Z,4592
2016-03-18T09:51:35.823Z,4549
2016-03-18T09:51:50.120Z,4464
2016-03-18T09:52:03.448Z,4361
2016-03-18T09:52:16.811Z,4239
2016-03-18T09:52:30.311Z,4152
2016-03-18T09:52:43.733Z,4084
2016-03-18T09:52:57.015Z,4005
2016-03-18T09:53:10.515Z,3970
2016-03-18T09:53:23.985Z,3997
2016-03-18T09:53:37.313Z,4057
2016-03-18T09:53:50.876Z,4152
2016-03-18T09:54:04.407Z,4213
2016-03-18T09:54:17.785Z,4228
2016-03-18T09:54:31.270Z,4288
2016-03-18T09:54:44.691Z,4340
2016-03-18T09:54:58.020Z,4328
2016-03-18T09:55:11.569Z,4387
2016-03-18T09:55:25.538Z,4513
2016-03-18T09:55:38.819Z,4874
2016-03-18T09:55:52.366Z,5247
2016-03-18T09:56:05.726Z,5518
2016-03-18T09:56:19.103Z,5675
2016-03-18T09:56:32.540Z,5708
2016-03-18T09:56:46.025Z,5700
2016-03-18T09:56:59.384Z,5663
2016-03-18T09:57:12.918Z,5687
2016-03-18T09:57:26.184Z,5879
2016-03-18T09:57:39.762Z,5948
2016-03-18T09:57:53.199Z,5955
2016-03-18T09:58:06.512Z,6013
2016-03-18T09:58:20.030Z,6132
2016-03-18T09:58:33.545Z,6294
2016-03-18T09:58:46.842Z,6450
2016-03-18T09:59:00.280Z,6572
2016-03-18T09:59:13.845Z,6652
2016-03-18T09:59:27.142Z,6671
2016-03-18T09:59:40.564Z,6637
2016-03-18T09:59:54.220Z,6543
2016-03-18T10:00:07.658Z,6359
2016-03-18T10:00:20.988Z,6221
2016-03-18T10:00:34.535Z,6097
2016-03-18T10:00:48.066Z,6063
2016-03-18T10:01:01.410Z,5993
2016-03-18T10:01:14.819Z,6012
2016-03-18T10:01:28.288Z,6055
2016-03-18T10:01:43.241Z,6090
2016-03-18T10:01:56.631Z,6134
2016-03-18T10:02:10.194Z,6160
2016-03-18T10:02:23.666Z,6160
2016-03-18T10:02:36.962Z,6134
2016-03-18T10:02:50.509Z,6145
2016-03-18T10:03:03.869Z,6130
2016-03-18T10:03:17.247Z,5990
2016-03-18T10:03:30.544Z,5869
2016-03-18T10:03:43.981Z,5747
2016-03-18T10:03:57.528Z,5725
2016-03-18T10:04:10.872Z,5621
2016-03-18T10:04:24.327Z,5499
2016-03-18T10:04:37.842Z,5432
2016-03-18T10:04:51.155Z,5384
2016-03-18T10:05:04.967Z,5253
2016-03-18T10:05:18.456Z,5123
2016-03-18T10:05:31.831Z,5063
2016-03-18T10:05:45.221Z,5053
2016-03-18T10:05:58.659Z,5105
2016-03-18T10:06:12.223Z,5140
2016-03-18T10:06:25.630Z,5175
2016-03-18T10:06:39.005Z,5208
2016-03-18T10:06:52.505Z,5257
2016-03-18T10:07:05.895Z,5377
2016-03-18T10:07:19.257Z,5499
2016-03-18T10:07:32.835Z,5558
2016-03-18T10:07:46.288Z,5628
2016-03-18T10:20:58.949Z,5976
2016-03-18T10:21:12.529Z,5898
2016-03-18T10:21:25.888Z,5847
2016-03-18T10:21:39.310Z,5762
2016-03-18T10:21:52.920Z,5631
2016-03-18T10:22:06.217Z,5511
2016-03-18T10:22:19.641Z,5416
2016-03-18T10:22:33.595Z,5327
2016-03-18T10:22:46.923Z,5302
2016-03-18T10:23:00.251Z,5292
2016-03-18T10:23:13.956Z,5355
2016-03-18T10:23:27.409Z,5381
2016-03-18T10:23:40.800Z,5389
2016-03-18T10:23:54.347Z,5397
2016-03-18T10:24:08.472Z,5414
2016-03-18T10:24:21.928Z,5511
2016-03-18T10:24:35.443Z,5615
2016-03-18T10:24:48.818Z,5702
2016-03-18T10:25:02.240Z,5764
2016-03-18T10:25:15.712Z,5789
2016-03-18T10:25:29.087Z,5800
2016-03-18T10:25:42.806Z,5661
2016-03-18T10:25:56.243Z,5489
2016-03-18T10:26:09.649Z,5370
2016-03-18T10:26:22.980Z,5267
2016-03-18T10:26:36.511Z,5205
2016-03-18T10:26:49.870Z,5131
2016-03-18T10:27:03.308Z,5111
2016-03-18T10:27:16.671Z,5163
2016-03-18T10:27:30.187Z,5208
2016-03-18T10:27:43.687Z,5155
2016-03-18T10:27:57.046Z,5138
2016-03-18T10:28:10.546Z,5136
2016-03-18T10:28:24.079Z,5163
2016-03-18T10:28:37.423Z,5153
2016-03-18T10:28:50.845Z,5162
2016-03-18T10:29:04.423Z,5188
2016-03-18T10:29:17.785Z,5187
2016-03-18T10:29:31.926Z,5230
2016-03-18T10:29:45.426Z,5290
2016-03-18T10:29:58.723Z,5377
2016-03-18T10:30:12.272Z,5421
2016-03-18T10:30:25.694Z,5438
2016-03-18T10:30:39.084Z,5474
2016-03-18T10:30:52.506Z,5449
2016-03-18T10:31:05.991Z,5354
2016-03-18T10:31:19.322Z,5260
2016-03-18T10:31:32.775Z,5136
2016-03-18T10:31:46.697Z,5076
2016-03-18T10:32:00.072Z,5023
2016-03-18T10:32:13.527Z,5014
2016-03-18T10:32:27.105Z,5006
2016-03-18T10:32:40.496Z,5051
2016-03-18T10:32:53.964Z,5068
2016-03-18T10:33:07.308Z,5058
2016-03-18T10:33:20.765Z,5121
2016-03-18T10:33:34.250Z,5128
2016-03-18T10:33:47.546Z,5155
2016-03-18T10:34:00.984Z,5120
2016-03-18T10:34:14.924Z,5105
2016-03-18T10:34:28.378Z,5061
2016-03-18T10:34:41.690Z,5026
2016-03-18T10:34:55.253Z,4991
2016-03-18T10:35:08.581Z,5009
2016-03-18T10:35:21.926Z,5026
2016-03-18T10:35:35.426Z,5061
2016-03-18T10:35:49.364Z,5078
2016-03-18T10:36:02.817Z,5113
2016-03-18T10:36:16.195Z,5148
2016-03-18T10:36:29.726Z,5165
2016-03-18T10:36:43.179Z,5210
2016-03-18T10:36:56.476Z,5201
2016-03-18T10:37:09.961Z,5158
2016-03-18T10:37:23.541Z,5113
2016-03-18T10:37:36.885Z,5105
2016-03-18T10:37:50.400Z,5095
2016-03-18T10:38:03.916Z,5128
2016-03-18T10:38:17.216Z,5212
2016-03-18T10:38:30.591Z,5384
2016-03-18T10:38:44.044Z,5592
2016-03-18T10:51:56.610Z,5890
2016-03-18T10:52:10.032Z,5873
2016-03-18T10:52:23.362Z,5873
2016-03-18T10:52:36.784Z,5866
2016-03-18T10:52:50.300Z,5779
2016-03-18T10:53:03.596Z,5694
2016-03-18T10:53:17.069Z,5588
2016-03-18T10:53:30.600Z,5510
2016-03-18T10:53:44.850Z,5476
2016-03-18T10:53:58.179Z,5423
2016-03-18T10:54:11.647Z,5378
2016-03-18T10:54:25.196Z,5410
2016-03-18T10:54:38.493Z,5575
2016-03-18T10:54:51.837Z,5739
2016-03-18T10:55:05.368Z,5913
2016-03-18T10:55:18.730Z,6025
2016-03-18T10:55:32.168Z,6122
2016-03-18T10:55:45.652Z,6172
2016-03-18T10:55:59.043Z,6248
2016-03-18T10:56:12.324Z,6358
2016-03-18T10:56:25.827Z,6549
2016-03-18T10:56:39.233Z,6731
2016-03-18T10:56:53.015Z,6898
2016-03-18T10:57:06.343Z,6995
2016-03-18T10:57:19.720Z,6952
2016-03-18T10:57:33.189Z,6831
2016-03-18T10:57:46.689Z,6686
2016-03-18T10:58:00.017Z,6467
2016-03-18T10:58:13.598Z,6310
2016-03-18T10:58:27.082Z,6248
2016-03-18T10:58:40.379Z,6273
2016-03-18T10:58:53.879Z,6340
2016-03-18T10:59:07.301Z,6512
2016-03-18T10:59:20.710Z,6765
2016-03-18T10:59:34.288Z,6982
2016-03-18T10:59:47.788Z,7129
2016-03-18T11:00:01.273Z,7225
2016-03-18T11:00:14.806Z,7230
2016-03-18T11:00:28.181Z,7243
2016-03-18T11:00:41.462Z,7344
2016-03-18T11:00:55.165Z,7568
2016-03-18T11:01:08.572Z,7769
2016-03-18T11:01:21.918Z,7874
2016-03-18T11:01:35.512Z,7884
2016-03-18T11:01:56.309Z,7862
2016-03-18T11:02:09.684Z,7936
2016-03-18T11:02:23.187Z,8159
2016-03-18T11:02:36.499Z,8477
2016-03-18T11:02:50.046Z,8866
2016-03-18T11:03:03.453Z,9284
2016-03-18T11:03:16.767Z,9625
2016-03-18T11:03:30.220Z,9749
2016-03-18T11:03:43.751Z,9662
2016-03-18T11:03:57.048Z,9523
2016-03-18T11:04:10.564Z,9423
2016-03-18T11:04:24.176Z,9189
2016-03-18T11:04:37.458Z,8936
2016-03-18T11:04:50.926Z,8787
2016-03-18T11:05:04.411Z,8744
2016-03-18T11:05:17.804Z,8736
2016-03-18T11:05:31.132Z,8699
2016-03-18T11:05:44.507Z,8717
2016-03-18T11:05:57.976Z,8699
2016-03-18T11:06:11.320Z,8681
2016-03-18T11:06:24.713Z,8714
2016-03-18T11:06:38.244Z,8834
2016-03-18T11:06:51.650Z,8955
2016-03-18T11:07:04.978Z,9042
2016-03-18T11:07:18.481Z,9092
2016-03-18T11:07:31.950Z,9159
2016-03-18T11:07:45.247Z,9264
2016-03-18T11:07:58.762Z,9390
2016-03-18T11:08:12.106Z,9398
2016-03-18T11:08:25.672Z,9303
2016-03-18T11:08:39.140Z,9199
2016-03-18T11:08:52.422Z,9124
2016-03-18T11:09:06.047Z,9022
2016-03-18T11:09:19.642Z,8884
2016-03-18T11:09:32.924Z,8705
2016-03-18T11:09:46.439Z,8436
2016-03-18T11:22:53.585Z,8177
2016-03-18T11:23:07.007Z,8574
2016-03-18T11:23:20.430Z,8106
2016-03-18T11:23:33.930Z,7743
2016-03-18T11:23:47.243Z,7450
2016-03-18T11:24:00.696Z,7172
2016-03-18T11:24:14.262Z,6923
2016-03-18T11:24:27.683Z,6690
2016-03-18T11:24:41.183Z,6458
2016-03-18T11:24:54.668Z,6234
2016-03-18T11:25:08.074Z,6010
2016-03-18T11:25:21.435Z,5769
2016-03-18T11:25:34.998Z,5574
2016-03-18T11:25:48.467Z,5334
2016-03-18T11:26:01.795Z,5188
2016-03-18T11:26:15.392Z,5216
2016-03-18T11:26:28.798Z,5353
2016-03-18T11:26:42.220Z,5574
2016-03-18T11:26:55.798Z,5797
2016-03-18T11:27:09.110Z,5908
2016-03-18T11:27:22.520Z,5924
2016-03-18T11:27:36.098Z,5852
2016-03-18T11:27:49.426Z,5755
2016-03-18T11:28:02.801Z,5687
2016-03-18T11:28:16.398Z,5618
2016-03-18T11:28:29.851Z,5558
2016-03-18T11:28:43.179Z,5470
2016-03-18T11:28:56.741Z,5416
2016-03-18T11:29:10.116Z,5444
2016-03-18T11:29:23.603Z,5460
2016-03-18T11:29:37.118Z,5528
2016-03-18T11:29:50.478Z,5615
2016-03-18T11:30:03.915Z,5682
2016-03-18T11:30:17.402Z,5794
2016-03-18T11:30:30.777Z,5905
2016-03-18T11:30:44.105Z,6050
2016-03-18T11:30:57.620Z,6203
2016-03-18T11:31:11.120Z,6418
2016-03-18T11:31:24.452Z,6623
2016-03-18T11:31:38.546Z,6900
2016-03-18T11:31:51.952Z,7150
2016-03-18T11:32:05.484Z,7394
2016-03-18T11:32:18.954Z,7523
2016-03-18T11:32:32.298Z,7610
2016-03-18T11:32:46.017Z,7670
2016-03-18T11:32:59.439Z,7667
2016-03-18T11:33:12.751Z,7710
2016-03-18T11:33:26.348Z,7770
2016-03-18T11:33:39.739Z,7849
2016-03-18T11:33:53.098Z,7911
2016-03-18T11:34:06.614Z,7911
2016-03-18T11:34:20.100Z,7867
2016-03-18T11:34:33.522Z,7817
2016-03-18T11:34:46.991Z,7777
2016-03-18T11:35:00.475Z,7700
2016-03-18T11:35:13.978Z,7569
2016-03-18T11:35:27.322Z,7464
2016-03-18T11:35:40.728Z,7384
2016-03-18T11:35:54.306Z,7384
2016-03-18T11:36:07.587Z,7424
2016-03-18T11:36:20.965Z,7568
2016-03-18T11:36:34.481Z,7864
2016-03-18T11:36:47.809Z,8213
2016-03-18T11:37:01.184Z,8529
2016-03-18T11:37:14.671Z,8778
2016-03-18T11:37:28.139Z,8853
2016-03-18T11:37:41.561Z,8706
2016-03-18T11:37:55.061Z,8442
2016-03-18T11:38:08.421Z,8250
2016-03-18T11:38:21.908Z,8153
2016-03-18T11:38:35.533Z,8103
2016-03-18T11:38:48.955Z,7955
2016-03-18T11:39:02.377Z,7748
2016-03-18T11:39:15.911Z,7515
2016-03-18T11:39:29.895Z,7186
2016-03-18T11:39:43.239Z,6846
2016-03-18T11:39:56.817Z,6534
2016-03-18T11:40:10.177Z,6273
2016-03-18T11:40:23.508Z,6044
2016-03-18T11:40:36.961Z,5905
2016-03-18T11:40:50.461Z,5838
2016-03-18T11:54:01.870Z,5719
2016-03-18T11:54:15.232Z,5746
2016-03-18T11:54:29.388Z,5763
2016-03-18T11:54:42.873Z,5779
2016-03-18T11:54:56.217Z,5796
2016-03-18T11:55:09.701Z,5868
2016-03-18T11:55:23.173Z,5911
2016-03-18T11:55:36.688Z,5940
2016-03-18T11:55:50.235Z,5913
2016-03-18T11:56:03.532Z,5906
2016-03-18T11:56:16.910Z,5844
2016-03-18T11:56:30.441Z,5836
2016-03-18T11:56:43.769Z,5818
2016-03-18T11:56:57.254Z,5836
2016-03-18T11:57:10.738Z,5854
2016-03-18T11:57:24.855Z,5836
2016-03-18T11:57:38.246Z,5826
2016-03-18T11:57:51.824Z,5843
2016-03-18T11:58:05.340Z,5858
2016-03-18T11:58:18.686Z,5928
2016-03-18T11:58:32.186Z,5997
2016-03-18T11:58:45.607Z,6074
2016-03-18T11:58:59.076Z,6167
2016-03-18T11:59:12.592Z,6331
2016-03-18T11:59:26.001Z,6529
2016-03-18T11:59:39.329Z,6745
2016-03-18T11:59:52.876Z,6954
2016-03-18T12:00:06.251Z,7093
2016-03-18T12:00:19.597Z,7223
2016-03-18T12:00:33.159Z,7370
2016-03-18T12:00:46.831Z,7492
2016-03-18T12:01:00.222Z,7534
2016-03-18T12:01:13.737Z,7558
2016-03-18T12:01:27.303Z,7626
2016-03-18T12:01:42.444Z,7748
2016-03-18T12:01:56.069Z,7855
2016-03-18T12:02:09.475Z,7847
2016-03-18T12:02:22.884Z,7788
2016-03-18T12:02:36.368Z,7641
2016-03-18T12:02:49.837Z,7440
2016-03-18T12:03:03.259Z,7258
2016-03-18T12:03:16.808Z,7121
2016-03-18T12:03:30.355Z,6997
2016-03-18T12:03:43.699Z,6982
2016-03-18T12:03:57.214Z,6957
2016-03-18T12:04:10.652Z,6915
2016-03-18T12:04:24.014Z,6840
2016-03-18T12:04:37.530Z,6701
2016-03-18T12:04:50.952Z,6562
2016-03-18T12:05:04.264Z,6433
2016-03-18T12:05:17.783Z,6248
2016-03-18T12:05:31.158Z,6134
2016-03-18T12:05:44.470Z,6072
2016-03-18T12:05:58.001Z,6064
2016-03-18T12:06:11.408Z,6072
2016-03-18T12:06:24.770Z,6116
2016-03-18T12:06:38.239Z,6183
2016-03-18T12:06:51.754Z,6313
2016-03-18T12:07:05.161Z,6454
2016-03-18T12:07:18.648Z,6540
2016-03-18T12:07:32.101Z,6557
2016-03-18T12:07:45.679Z,6537
2016-03-18T12:07:59.086Z,6534
2016-03-18T12:08:12.554Z,6586
2016-03-18T12:08:26.009Z,6665
2016-03-18T12:08:39.509Z,6698
2016-03-18T12:08:52.822Z,6700
2016-03-18T12:09:06.275Z,6708
2016-03-18T12:09:19.809Z,6743
2016-03-18T12:09:33.294Z,6823
2016-03-18T12:09:46.762Z,6884
2016-03-18T12:10:00.294Z,7007
2016-03-18T12:10:13.716Z,7103
2016-03-18T12:10:26.999Z,7153
2016-03-18T12:10:40.421Z,7213
2016-03-18T12:10:53.936Z,7337
2016-03-18T12:11:07.374Z,7397
2016-03-18T12:11:20.767Z,7395
2016-03-18T12:11:34.236Z,7402
2016-03-18T12:11:47.689Z,7437
2016-03-18T12:24:56.537Z,8214
2016-03-18T12:25:09.943Z,8125
2016-03-18T12:25:23.368Z,8063
2016-03-18T12:25:36.962Z,8047
2016-03-18T12:25:50.462Z,8047
2016-03-18T12:26:03.837Z,8065
2016-03-18T12:26:17.245Z,8075
2016-03-18T12:26:30.745Z,8067
2016-03-18T12:26:44.042Z,8023
2016-03-18T12:26:57.432Z,7990
2016-03-18T12:27:10.964Z,7938
2016-03-18T12:27:24.326Z,7906
2016-03-18T12:27:37.764Z,7811
2016-03-18T12:27:51.264Z,7743
2016-03-18T12:28:04.701Z,7650
2016-03-18T12:28:18.110Z,7564
2016-03-18T12:28:31.673Z,7489
2016-03-18T12:28:45.079Z,7379
2016-03-18T12:28:58.642Z,7241
2016-03-18T12:29:12.188Z,7084
2016-03-18T12:29:25.503Z,6999
2016-03-18T12:29:38.940Z,6920
2016-03-18T12:29:52.440Z,6848
2016-03-18T12:30:05.847Z,6822
2016-03-18T12:30:19.256Z,6822
2016-03-18T12:30:32.834Z,6848
2016-03-18T12:30:46.193Z,6892
2016-03-18T12:30:59.475Z,6917
2016-03-18T12:31:12.959Z,6952
2016-03-18T12:31:26.400Z,6971
2016-03-18T12:31:40.821Z,6982
2016-03-18T12:31:55.134Z,6959
2016-03-18T12:32:08.462Z,6915
2016-03-18T12:32:22.012Z,6873
2016-03-18T12:32:35.403Z,6796
2016-03-18T12:32:48.715Z,6684
2016-03-18T12:33:02.231Z,6589
2016-03-18T12:33:15.686Z,6527
2016-03-18T12:33:29.045Z,6489
2016-03-18T12:33:42.514Z,6540
2016-03-18T12:33:56.014Z,6537
2016-03-18T12:34:09.436Z,6562
2016-03-18T12:34:22.751Z,6599
2016-03-18T12:34:36.283Z,6581
2016-03-18T12:34:49.736Z,6571
2016-03-18T12:35:03.126Z,6598
2016-03-18T12:35:16.536Z,6614
2016-03-18T12:35:30.129Z,6631
2016-03-18T12:35:43.442Z,6665
2016-03-18T12:35:56.817Z,6706
2016-03-18T12:36:10.348Z,6750
2016-03-18T12:36:23.710Z,6802
2016-03-18T12:36:37.101Z,6825
2016-03-18T12:36:50.617Z,6895
2016-03-18T12:37:04.164Z,6939
2016-03-18T12:37:17.603Z,6964
2016-03-18T12:37:30.962Z,6998
2016-03-18T12:37:44.572Z,7103
2016-03-18T12:37:57.916Z,7163
2016-03-18T12:38:11.212Z,7223
2016-03-18T12:38:24.794Z,7294
2016-03-18T12:38:38.278Z,7327
2016-03-18T12:38:51.653Z,7352
2016-03-18T12:39:05.169Z,7386
2016-03-18T12:39:18.702Z,7401
2016-03-18T12:39:32.108Z,7486
2016-03-18T12:39:45.624Z,7617
2016-03-18T12:39:59.124Z,7737
2016-03-18T12:40:12.952Z,7886
2016-03-18T12:40:26.299Z,7998
2016-03-18T12:40:39.689Z,8113
2016-03-18T12:40:53.236Z,8178
2016-03-18T12:41:06.533Z,8110
2016-03-18T12:41:19.958Z,8009
2016-03-18T12:41:33.489Z,7763
2016-03-18T12:41:46.880Z,7554
2016-03-18T12:42:00.302Z,7426
2016-03-18T12:42:13.817Z,7305
2016-03-18T12:42:27.273Z,7191
2016-03-18T12:42:40.820Z,7104
2016-03-18T12:55:46.589Z,8308
2016-03-18T12:55:59.995Z,8539
2016-03-18T12:56:14.229Z,8738
2016-03-18T12:56:27.701Z,8867
2016-03-18T12:56:41.045Z,8949
2016-03-18T12:56:54.467Z,8872
2016-03-18T12:57:08.029Z,8754
2016-03-18T12:57:21.376Z,8610
2016-03-18T12:57:34.751Z,8498
2016-03-18T12:57:48.251Z,8287
2016-03-18T12:58:01.563Z,8004
2016-03-18T12:58:15.144Z,7668
2016-03-18T12:58:28.535Z,7322
2016-03-18T12:58:42.004Z,7046
2016-03-18T12:58:55.535Z,6785
2016-03-18T12:59:09.082Z,6586
2016-03-18T12:59:22.459Z,6455
2016-03-18T12:59:36.006Z,6403
2016-03-18T12:59:49.521Z,6367
2016-03-18T13:00:02.896Z,6418
2016-03-18T13:00:16.399Z,6515
2016-03-18T13:00:29.978Z,6577
2016-03-18T13:00:43.478Z,6602
2016-03-18T13:00:56.790Z,6627
2016-03-18T13:01:10.196Z,6653
2016-03-18T13:01:23.823Z,6694
2016-03-18T13:01:38.151Z,6780
2016-03-18T13:01:52.183Z,6907
2016-03-18T13:02:05.667Z,7061
2016-03-18T13:02:19.139Z,7250
2016-03-18T13:02:32.561Z,7394
2016-03-18T13:02:46.092Z,7538
2016-03-18T13:02:59.592Z,7699
2016-03-18T13:03:12.920Z,7871
2016-03-18T13:03:26.438Z,8015
2016-03-18T13:03:39.813Z,8187
2016-03-18T13:03:53.313Z,8331
2016-03-18T13:04:06.813Z,8485
2016-03-18T13:04:20.239Z,8594
2016-03-18T13:04:33.598Z,8703
2016-03-18T13:04:47.207Z,8866
2016-03-18T13:05:00.614Z,9075
2016-03-18T13:05:13.989Z,9205
2016-03-18T13:05:27.506Z,9355
2016-03-18T13:05:40.928Z,9429
2016-03-18T13:05:54.241Z,9310
2016-03-18T13:06:07.756Z,9118
2016-03-18T13:06:21.306Z,8880
2016-03-18T13:06:34.900Z,8686
2016-03-18T13:06:48.509Z,8563
2016-03-18T13:07:02.009Z,8531
2016-03-18T13:07:15.575Z,8509
2016-03-18T13:07:28.965Z,8479
2016-03-18T13:07:42.356Z,8396
2016-03-18T13:07:55.840Z,8281
2016-03-18T13:08:09.387Z,8128
2016-03-18T13:08:22.733Z,7889
2016-03-18T13:08:36.186Z,7623
2016-03-18T13:08:49.702Z,7427
2016-03-18T13:09:03.030Z,7256
2016-03-18T13:09:16.486Z,7077
2016-03-18T13:09:29.923Z,6898
2016-03-18T13:09:43.565Z,6709
2016-03-18T13:09:56.893Z,6564
2016-03-18T13:10:10.456Z,6435
2016-03-18T13:10:23.987Z,6306
2016-03-18T13:10:37.459Z,6256
2016-03-18T13:10:50.912Z,6246
2016-03-18T13:11:04.443Z,6314
2016-03-18T13:11:17.881Z,6415
2016-03-18T13:11:31.195Z,6569
2016-03-18T13:11:44.804Z,6704
2016-03-18T13:11:58.336Z,6810
2016-03-18T13:12:11.789Z,6836
2016-03-18T13:12:25.117Z,6786
2016-03-18T13:12:38.714Z,6674
2016-03-18T13:12:52.120Z,6544